This is the latest recevied weather packets stored in our database for station/object DB0BGL. If no packets are shown the sender has not sent any weather packets the latest 10 day(s).
| Time | Temp. | Humidity | Pressure | Rain* | Wind** | Luminosity | Snow |
|---|---|---|---|---|---|---|---|
| 1788106168 | 71° F | 52% | 0 mmHg | 0 in | - | - | - |
| 1788105567 | 75° F | 45% | 0 mmHg | 0 in | - | - | - |
| 1788104966 | 77° F | 43% | 0 mmHg | 0 in | - | - | - |
| 1788104366 | 77° F | 43% | 0 mmHg | 0 in | - | - | - |
| 1788103765 | 77° F | 43% | 0 mmHg | 0 in | - | - | - |
| 1788103165 | 77° F | 43% | 0 mmHg | 0 in | - | - | - |
| 1788102564 | 77° F | 41% | 0 mmHg | 0 in | - | - | - |
| 1788101964 | 78° F | 41% | 0 mmHg | 0 in | - | - | - |
| 1788101495 | 79° F | 40% | 0 mmHg | 0 in | - | - | - |
| 1788101363 | 79° F | 40% | 0 mmHg | 0 in | - | - | - |
| 1788100762 | 78° F | 41% | 0 mmHg | 0 in | - | - | - |
| 1788100162 | 80° F | 39% | 0 mmHg | 0 in | - | - | - |
| 1788099561 | 81° F | 36% | 0 mmHg | 0 in | - | - | - |
| 1788098961 | 81° F | 38% | 0 mmHg | 0 in | - | - | - |
| 1788098360 | 82° F | 36% | 0 mmHg | 0 in | - | - | - |
| 1788097759 | 82° F | 36% | 0 mmHg | 0 in | - | - | - |
| 1788097160 | 83° F | 35% | 0 mmHg | 0 in | - | - | - |
| 1788096558 | 82° F | 37% | 0 mmHg | 0 in | - | - | - |
| 1788095958 | 80° F | 38% | 0 mmHg | 0 in | - | - | - |
| 1788095357 | 80° F | 39% | 0 mmHg | 0 in | - | - | - |
| 1788094758 | 79° F | 40% | 0 mmHg | 0 in | - | - | - |
| 1788094156 | 78° F | 40% | 0 mmHg | 0 in | - | - | - |
| 1788093555 | 76° F | 44% | 0 mmHg | 0 in | - | - | - |
| 1788092956 | 72° F | 49% | 0 mmHg | 0 in | - | - | - |
| 1788092354 | 71° F | 51% | 0 mmHg | 0 in | - | - | - |
* Rain latest hour (hover to see other rain measurements)
** Current wind speed in m/s (hover to see current wind gust speed)